ADDS TAF Board (Experimental) INFO Settings
IDs: Format: Expanded Condensed

KSLC - Salt Lake City Intl, UT, US

Issued at 1120 UTC 24 May 2016
Updated at: 1148 UTC 24 May 2016
Time1054Z 24/12Z 24/13Z 24/14Z 24/15Z 24/16Z 24/17Z 24/18Z 24/19Z 24/20Z 24/21Z 24/22Z 24/23Z 25/00Z
Type OBS PRVL PRVL PRVL PRVL PRVL PRVL PRVL PRVL PRVL PRVL PRVL PRVL PRVL
VIS 10 >6 >6 >6 >6 >6 >6 >6 >6 >6 >6 >6 >6 >6
CIG -- 110 110 110 110 110 100 100 100 100 100 100 100 100
Cover SCT BKN BKN BKN BKN BKN BKN BKN BKN BKN BKN BKN BKN BKN
FltCat VFR VFR VFR VFR VFR VFR VFR VFR VFR VFR VFR VFR VFR VFR
WX -- -- -- -- -- -- -- -- -- -- -- -- -- --
WDir 180 160 160 160 160 160 180 180 180 180 180 310 310 310
WSpd 6 7 7 7 7 7 10 10 10 10 10 9 9 9
WGst -- -- -- -- -- -- 15 15 15 15 15 -- -- --
R14/32
XWnd -3 -1 -1 -1 -1 -1 -5 -5 -5 -5 -5 -4 -4 -4
XGst -- -- -- -- -- -- -7 -7 -7 -7 -7 -- -- --
HWnd 5 7 7 7 7 7 9 9 9 9 9 -8 -8 -8
HGst -- -- -- -- -- -- 13 13 13 13 13 -- -- --
R16/34
XWnd -1 2 2 2 2 2 -1 -1 -1 -1 -1 -6 -6 -6
XGst -- -- -- -- -- -- -1 -1 -1 -1 -1 -- -- --
HWnd 6 7 7 7 7 7 10 10 10 10 10 -6 -6 -6
HGst -- -- -- -- -- -- 15 15 15 15 15 -- -- --
R17/35
XWnd 0 2 2 2 2 2 0 0 0 0 0 -7 -7 -7
XGst -- -- -- -- -- -- 0 0 0 0 0 -- -- --
HWnd 6 7 7 7 7 7 10 10 10 10 10 -6 -6 -6
HGst -- -- -- -- -- -- 15 15 15 15 15 -- -- --
RHB/18
XWnd -0 -2 -2 -2 -2 -2 -0 -0 -0 -0 -0 7 7 7
XGst -- -- -- -- -- -- -0 -0 -0 -0 -0 -- -- --
HWnd -6 -7 -7 -7 -7 -7 -10 -10 -10 -10 -10 6 6 6
HGst -- -- -- -- -- -- -15 -15 -15 -15 -15 -- -- --

NOTE: TEMPO conditions in [brackets]. Keep in mind TEMPO conditions might be better (lower impact) than prevailing conditions.

Raw TAF
KSLC 241120Z 2412/2518 16007KT P6SM SCT080 BKN110
  FM241700 18010G15KT P6SM SCT070 BKN100
  FM242200 31009KT P6SM SCT070 BKN100
  FM250300 15008KT P6SM SCT060 BKN090


Raw METAR
KSLC 241054Z 18006KT 10SM SCT110 12/06 A2981 RMK AO2 SLP058 T01170056
KSLC 240954Z 34007KT 10SM FEW090 FEW120 12/07 A2980 RMK AO2 SLP058 T01220067
KSLC 240854Z 00000KT 10SM SCT120 11/06 A2980 RMK AO2 SLP057 T01110056 58005

METAR Board
Radar Display
Forecast Discussion

TAF Board Legend

Potential Impact
Threat None Slight Moderate High
Visibility (sm) ≥5.1 5.1>X≥3 3>X≥1 <1
Ceiling (100 ft) ≥30.1 30.1>X≥10 10>X≥5 <5
Wind Speed (kt) <10 10≤X<20 20≤X<30 ≥30
Wind Gust (kt) <15 15≤X<25 25≤X<35 ≥35
Weather No Wx Reported VCTS,-TS,-FZRA,SN TS,FZRA +TS,+FZRA,+SN